createdAt,value
2023-02-14T00:00:10.202Z,15.50
2023-02-14T00:02:38.139Z,17.70
2023-02-14T00:05:08.080Z,13.90
2023-02-14T00:07:35.988Z,12.83
2023-02-14T00:10:03.955Z,15.47
2023-02-14T00:12:31.879Z,8.93
2023-02-14T00:15:16.981Z,12.40
2023-02-14T00:17:44.896Z,9.90
2023-02-14T00:20:14.266Z,11.23
2023-02-14T00:22:42.206Z,12.77
2023-02-14T00:25:10.130Z,15.10
2023-02-14T00:27:38.080Z,15.10
2023-02-14T00:30:07.361Z,13.83
2023-02-14T00:32:35.303Z,9.23
2023-02-14T00:35:03.200Z,11.60
2023-02-14T00:37:32.470Z,12.00
2023-02-14T00:40:00.420Z,15.70
2023-02-14T00:42:28.414Z,16.57
2023-02-14T00:44:56.330Z,13.33
2023-02-14T00:47:24.278Z,14.63
2023-02-14T00:49:52.227Z,16.00
2023-02-14T00:52:20.175Z,16.70
2023-02-14T00:54:49.458Z,15.93
2023-02-14T00:57:17.378Z,11.63
2023-02-14T00:59:45.264Z,14.53
2023-02-14T01:02:13.209Z,17.30
2023-02-14T01:04:41.131Z,16.97
2023-02-14T01:07:09.007Z,17.17
2023-02-14T01:09:36.863Z,17.27
2023-02-14T01:12:06.758Z,17.80
2023-02-14T01:14:34.663Z,29.27
2023-02-14T01:17:02.584Z,19.87
2023-02-14T01:19:30.790Z,18.63
2023-02-14T01:21:58.699Z,17.73
2023-02-14T01:24:26.690Z,15.77
2023-02-14T01:26:54.583Z,12.67
2023-02-14T01:29:23.819Z,15.73
2023-02-14T01:31:51.728Z,14.13
2023-02-14T01:34:19.660Z,13.83
2023-02-14T01:36:47.552Z,14.83
2023-02-14T01:39:17.715Z,15.80
2023-02-14T01:41:48.552Z,12.33
2023-02-14T01:44:53.904Z,14.47
2023-02-14T01:47:23.503Z,16.40
2023-02-14T01:49:54.053Z,17.73
2023-02-14T01:52:25.274Z,14.83
2023-02-14T01:54:56.257Z,19.77
2023-02-14T01:57:26.009Z,16.80
2023-02-14T01:59:55.424Z,11.03
2023-02-14T02:02:24.782Z,11.23
2023-02-14T02:04:55.268Z,14.53
2023-02-14T02:07:25.920Z,9.97
2023-02-14T02:09:55.809Z,13.53
2023-02-14T02:12:23.932Z,11.73
2023-02-14T02:14:54.272Z,10.50
2023-02-14T02:17:27.998Z,17.73
2023-02-14T02:20:18.669Z,18.50
2023-02-14T02:23:17.666Z,12.83
2023-02-14T02:26:04.670Z,9.00
2023-02-14T02:29:03.294Z,11.40
2023-02-14T02:31:43.374Z,11.73
2023-02-14T02:34:41.570Z,14.00
2023-02-14T02:37:23.554Z,15.07
2023-02-14T02:40:03.130Z,19.10
2023-02-14T02:42:37.321Z,20.47
2023-02-14T02:45:12.522Z,15.40
2023-02-14T02:47:45.489Z,15.77
2023-02-14T02:50:38.357Z,16.43
2023-02-14T02:53:11.746Z,12.90
2023-02-14T02:56:01.690Z,16.60
2023-02-14T02:58:32.664Z,14.80
2023-02-14T03:01:02.667Z,17.90
2023-02-14T03:03:49.224Z,23.80
2023-02-14T03:06:17.119Z,17.67
2023-02-14T03:08:46.437Z,18.63
2023-02-14T03:11:14.819Z,18.43
2023-02-14T03:14:04.415Z,24.13
2023-02-14T03:16:35.846Z,12.93
2023-02-14T03:19:50.960Z,20.83
2023-02-14T03:22:24.711Z,19.87
2023-02-14T03:24:57.793Z,10.80
2023-02-14T03:27:28.656Z,10.60
2023-02-14T03:30:00.307Z,11.77
2023-02-14T03:32:32.985Z,12.03
2023-02-14T03:35:06.823Z,9.67
2023-02-14T03:37:40.184Z,10.13
2023-02-14T03:40:11.504Z,12.77
2023-02-14T03:42:42.917Z,11.97
2023-02-14T03:45:14.585Z,9.53
2023-02-14T03:47:44.673Z,10.00
2023-02-14T03:50:16.865Z,9.33
2023-02-14T03:52:46.039Z,13.73
2023-02-14T03:55:18.429Z,13.32
2023-02-14T03:57:50.667Z,10.87
2023-02-14T04:00:19.862Z,14.00
2023-02-14T04:02:50.342Z,10.87
2023-02-14T04:05:20.996Z,10.13
2023-02-14T04:07:50.814Z,11.53
2023-02-14T04:10:20.770Z,11.17
2023-02-14T04:12:49.097Z,10.67
2023-02-14T04:15:17.838Z,14.13
2023-02-14T04:18:03.055Z,11.20
2023-02-14T04:20:31.423Z,18.23
2023-02-14T04:22:59.961Z,37.40
2023-02-14T04:25:30.498Z,15.10
2023-02-14T04:27:58.386Z,13.37
2023-02-14T04:30:26.483Z,12.33
2023-02-14T04:32:54.451Z,11.50
2023-02-14T04:35:22.401Z,14.00
2023-02-14T04:37:50.279Z,18.07
2023-02-14T04:40:18.199Z,11.00
2023-02-14T04:42:47.832Z,9.57
2023-02-14T04:45:16.056Z,13.07
2023-02-14T04:47:43.962Z,11.27
2023-02-14T04:50:12.051Z,11.60
2023-02-14T04:52:40.134Z,15.77
2023-02-14T04:55:09.517Z,13.83
2023-02-14T04:57:37.606Z,14.47
2023-02-14T05:00:08.263Z,13.43
2023-02-14T05:02:36.175Z,15.43
2023-02-14T05:05:04.073Z,11.63
2023-02-14T05:07:31.980Z,14.00
2023-02-14T05:09:59.921Z,12.50
2023-02-14T05:12:28.069Z,14.30
2023-02-14T05:14:57.671Z,18.57
2023-02-14T05:17:27.082Z,16.37
2023-02-14T05:19:54.979Z,14.17
2023-02-14T05:22:22.877Z,18.53
2023-02-14T05:24:50.848Z,10.63
2023-02-14T05:27:18.770Z,19.30
2023-02-14T05:29:46.705Z,16.90
2023-02-14T05:32:14.687Z,14.20
2023-02-14T05:34:43.983Z,13.67
2023-02-14T05:37:11.934Z,16.27
2023-02-14T05:39:39.823Z,13.37
2023-02-14T05:44:35.534Z,16.83
2023-02-14T05:47:03.412Z,12.70
2023-02-14T05:49:31.361Z,10.93
2023-02-14T05:52:00.629Z,14.40
2023-02-14T05:54:28.559Z,12.53
2023-02-14T05:56:56.502Z,11.27
2023-02-14T05:59:24.411Z,11.97
2023-02-14T06:01:52.364Z,13.27
2023-02-14T06:04:20.292Z,13.50
2023-02-14T06:06:48.175Z,11.67
2023-02-14T06:09:17.579Z,12.57
2023-02-14T06:11:45.480Z,12.03
2023-02-14T06:14:13.447Z,12.53
2023-02-14T06:16:41.413Z,14.17
2023-02-14T06:19:09.450Z,13.00
2023-02-14T06:21:37.365Z,14.23
2023-02-14T06:24:05.500Z,9.83
2023-02-14T06:26:36.134Z,12.43
2023-02-14T06:29:05.034Z,14.83
2023-02-14T06:31:33.414Z,13.53
2023-02-14T06:34:01.458Z,9.30
2023-02-14T06:36:29.384Z,12.40
2023-02-14T06:38:57.301Z,18.13
2023-02-14T06:41:25.359Z,16.47
2023-02-14T06:43:54.612Z,11.93
2023-02-14T06:46:23.108Z,10.73
2023-02-14T06:48:51.118Z,19.13
2023-02-14T06:51:19.023Z,15.77
2023-02-14T06:53:46.947Z,15.27
2023-02-14T06:56:14.899Z,13.60
2023-02-14T06:58:42.813Z,13.93
2023-02-14T07:01:12.181Z,12.90
2023-02-14T07:03:40.118Z,15.37
2023-02-14T07:06:08.107Z,14.70
2023-02-14T07:08:36.014Z,17.73
2023-02-14T07:11:03.955Z,16.10
2023-02-14T07:13:31.859Z,21.03
2023-02-14T07:15:59.789Z,10.90
2023-02-14T07:18:29.120Z,33.33
2023-02-14T07:20:57.179Z,52.83
2023-02-14T07:23:25.102Z,56.47
2023-02-14T07:25:53.015Z,60.47
2023-02-14T07:28:22.015Z,39.67
2023-02-14T07:30:50.043Z,34.53
2023-02-14T07:33:18.009Z,39.83
2023-02-14T07:35:47.320Z,38.27
2023-02-14T07:38:15.234Z,37.63
2023-02-14T07:40:43.140Z,21.90
2023-02-14T07:43:11.043Z,18.90
2023-02-14T07:45:38.971Z,14.03
2023-02-14T07:48:07.533Z,8.93
2023-02-14T07:50:35.423Z,8.40
2023-02-14T07:53:04.722Z,8.87
2023-02-14T07:55:32.594Z,7.67
2023-02-14T07:58:00.550Z,7.93
2023-02-14T08:00:28.696Z,8.07
2023-02-14T08:02:57.114Z,11.80
2023-02-14T08:05:25.309Z,9.07
2023-02-14T08:07:53.300Z,11.00
2023-02-14T08:10:22.674Z,11.00
2023-02-14T08:13:03.623Z,30.63
2023-02-14T08:15:50.683Z,26.53
2023-02-14T08:18:19.437Z,14.07
2023-02-14T08:20:48.742Z,16.57
2023-02-14T08:23:18.454Z,21.47
2023-02-14T08:25:47.742Z,17.83
2023-02-14T08:28:15.799Z,14.47
2023-02-14T08:30:44.862Z,38.60
2023-02-14T08:33:12.880Z,25.43
2023-02-14T08:35:40.916Z,10.60
2023-02-14T08:38:09.263Z,15.50
2023-02-14T08:40:37.713Z,12.30
2023-02-14T08:43:07.599Z,13.77
2023-02-14T08:45:35.566Z,12.20
2023-02-14T08:48:05.073Z,12.63
2023-02-14T08:50:33.217Z,10.07
2023-02-14T08:53:01.510Z,10.87
2023-02-14T08:55:29.509Z,9.97
2023-02-14T08:57:58.072Z,9.77
2023-02-14T09:00:27.789Z,9.37
2023-02-14T09:02:55.790Z,10.33
2023-02-14T09:05:24.388Z,12.70
2023-02-14T09:07:52.567Z,12.90
2023-02-14T09:10:20.493Z,10.20
2023-02-14T09:12:48.382Z,10.30
2023-02-14T09:15:16.277Z,10.23
2023-02-14T09:17:45.727Z,13.47
2023-02-14T09:20:15.480Z,11.57
2023-02-14T09:22:43.576Z,8.90
2023-02-14T09:25:12.014Z,12.03
2023-02-14T09:27:40.046Z,10.53
2023-02-14T09:30:09.583Z,12.50
2023-02-14T09:32:37.567Z,10.30
2023-02-14T09:35:07.987Z,10.83
2023-02-14T09:37:53.226Z,9.70
2023-02-14T09:40:21.964Z,10.10
2023-02-14T09:43:02.009Z,10.63
2023-02-14T09:45:31.388Z,10.37
2023-02-14T09:48:02.839Z,11.70
2023-02-14T09:50:35.415Z,9.90
2023-02-14T09:53:08.260Z,10.60
2023-02-14T09:55:40.202Z,11.80
2023-02-14T09:58:14.764Z,10.30
2023-02-14T10:00:47.276Z,12.40
2023-02-14T10:04:02.732Z,10.10
2023-02-14T10:06:47.768Z,9.40
2023-02-14T10:09:32.623Z,10.93
2023-02-14T10:12:02.095Z,10.17
2023-02-14T10:14:33.941Z,10.10
2023-02-14T10:17:07.062Z,9.90
2023-02-14T10:19:39.467Z,9.73
2023-02-14T10:22:12.346Z,11.67
2023-02-14T10:24:43.746Z,12.53
2023-02-14T10:27:19.403Z,12.80
2023-02-14T10:29:47.367Z,14.40
2023-02-14T10:32:16.232Z,13.93
2023-02-14T10:34:48.185Z,11.93
2023-02-14T10:37:29.044Z,12.10
2023-02-14T10:40:10.667Z,11.87
2023-02-14T10:42:46.395Z,12.23
2023-02-14T10:45:19.925Z,11.83
2023-02-14T10:47:53.812Z,15.73
2023-02-14T10:50:25.987Z,13.60
2023-02-14T10:53:00.971Z,12.43
2023-02-14T10:55:38.335Z,12.40
2023-02-14T10:58:07.711Z,13.00
2023-02-14T11:00:36.980Z,12.23
2023-02-14T11:03:08.553Z,14.33
2023-02-14T11:05:38.933Z,14.30
2023-02-14T11:08:15.845Z,13.70
2023-02-14T11:10:43.830Z,15.33
2023-02-14T11:13:33.982Z,18.53
2023-02-14T11:16:03.812Z,15.37
2023-02-14T11:18:35.633Z,18.30
2023-02-14T11:21:06.087Z,26.23
2023-02-14T11:23:37.905Z,20.10
2023-02-14T11:26:08.356Z,19.47
2023-02-14T11:28:36.536Z,20.27
2023-02-14T11:31:05.210Z,21.40
2023-02-14T11:33:38.755Z,18.63
2023-02-14T11:36:11.892Z,26.57
2023-02-14T11:38:42.255Z,18.93
2023-02-14T11:41:11.716Z,19.87
2023-02-14T11:43:40.838Z,19.70
2023-02-14T11:46:15.269Z,19.23
2023-02-14T11:48:58.871Z,21.90
2023-02-14T11:51:29.210Z,22.73
2023-02-14T11:54:04.764Z,21.37
2023-02-14T11:56:48.889Z,21.33
2023-02-14T11:59:26.866Z,20.37
2023-02-14T12:01:55.385Z,24.67
2023-02-14T12:04:26.606Z,22.60
2023-02-14T12:07:14.441Z,20.93
2023-02-14T12:09:44.342Z,25.77
2023-02-14T12:12:19.002Z,20.97
2023-02-14T12:14:47.209Z,25.93
2023-02-14T12:17:30.103Z,23.73
2023-02-14T12:20:03.419Z,27.10
2023-02-14T12:22:35.256Z,22.73
2023-02-14T12:25:08.620Z,26.20
2023-02-14T12:27:45.591Z,23.50
2023-02-14T12:30:16.961Z,23.30
2023-02-14T12:32:49.145Z,27.00
2023-02-14T12:35:19.225Z,27.73
2023-02-14T12:38:03.966Z,30.30
2023-02-14T12:40:39.073Z,30.57
2023-02-14T12:43:33.679Z,29.30
2023-02-14T12:46:12.861Z,27.93
2023-02-14T12:48:54.346Z,28.40
2023-02-14T12:51:26.142Z,27.40
2023-02-14T12:54:02.414Z,31.73
2023-02-14T12:56:41.562Z,31.10
2023-02-14T12:59:19.178Z,30.70
2023-02-14T13:02:11.546Z,34.53
2023-02-14T13:04:55.503Z,30.77
2023-02-14T13:07:38.121Z,29.67
2023-02-14T13:10:14.566Z,29.30
2023-02-14T13:12:48.867Z,29.60
2023-02-14T13:15:23.541Z,34.60
2023-02-14T13:17:54.870Z,34.83
2023-02-14T13:20:35.410Z,32.27
2023-02-14T13:23:06.190Z,34.87
2023-02-14T13:25:40.492Z,33.30
2023-02-14T13:28:14.179Z,32.93
2023-02-14T13:30:43.180Z,32.70
2023-02-14T13:33:27.104Z,34.43
2023-02-14T13:35:58.090Z,28.20
2023-02-14T13:38:27.260Z,32.83
2023-02-14T13:40:56.098Z,31.57
2023-02-14T13:43:47.632Z,28.60
2023-02-14T13:46:16.684Z,33.57
2023-02-14T13:48:48.065Z,29.20
2023-02-14T13:51:15.975Z,27.33
2023-02-14T13:53:45.357Z,29.47
2023-02-14T13:56:34.632Z,32.63
2023-02-14T13:59:06.427Z,28.13
2023-02-14T14:01:40.550Z,27.50
2023-02-14T14:04:35.810Z,29.83
2023-02-14T14:07:23.171Z,26.03
2023-02-14T14:09:56.325Z,29.20
2023-02-14T14:12:45.879Z,32.30
2023-02-14T14:15:17.488Z,28.87
2023-02-14T14:17:50.054Z,29.87
2023-02-14T14:20:47.905Z,28.27
2023-02-14T14:23:43.297Z,27.67
2023-02-14T14:26:36.233Z,26.07
2023-02-14T14:29:11.390Z,29.90
2023-02-14T14:31:42.130Z,28.77
2023-02-14T14:34:17.488Z,36.37
2023-02-14T14:36:45.650Z,28.07
2023-02-14T14:39:13.636Z,28.07
2023-02-14T14:41:41.894Z,27.97
2023-02-14T14:44:09.843Z,23.40
2023-02-14T14:46:38.295Z,25.10
2023-02-14T14:49:10.778Z,27.83
2023-02-14T14:51:38.892Z,27.67
2023-02-14T14:54:08.482Z,29.53
2023-02-14T14:56:39.402Z,37.00
2023-02-14T14:59:21.282Z,29.53
2023-02-14T15:01:50.285Z,28.70
2023-02-14T15:04:20.898Z,26.97
2023-02-14T15:06:50.424Z,29.30
2023-02-14T15:09:23.843Z,29.70
2023-02-14T15:12:11.218Z,27.77
2023-02-14T15:14:42.442Z,28.80
2023-02-14T15:17:17.484Z,32.73
2023-02-14T15:19:48.651Z,33.10
2023-02-14T15:22:21.193Z,27.43
2023-02-14T15:24:49.541Z,30.93
2023-02-14T15:27:18.615Z,36.03
2023-02-14T15:29:55.316Z,36.77
2023-02-14T15:32:24.459Z,30.97
2023-02-14T15:34:53.951Z,35.83
2023-02-14T15:37:22.604Z,34.10
2023-02-14T15:39:52.430Z,35.00
2023-02-14T15:42:22.821Z,47.40
2023-02-14T15:44:50.768Z,38.80
2023-02-14T15:47:18.700Z,37.13
2023-02-14T15:49:47.585Z,36.87
2023-02-14T15:52:16.912Z,39.37
2023-02-14T15:54:46.454Z,41.67
2023-02-14T15:57:21.198Z,46.90
2023-02-14T15:59:49.192Z,44.10
2023-02-14T16:02:29.315Z,42.83
2023-02-14T16:05:04.774Z,50.67
2023-02-14T16:07:34.265Z,49.23
2023-02-14T16:10:21.745Z,56.27
2023-02-14T16:12:58.322Z,53.50
2023-02-14T16:15:27.403Z,150.57
2023-02-14T16:17:55.381Z,75.23
2023-02-14T16:20:39.827Z,145.07
2023-02-14T16:23:21.120Z,154.77
2023-02-14T16:25:49.771Z,198.80
2023-02-14T16:28:18.295Z,202.17
2023-02-14T16:30:48.064Z,245.03
2023-02-14T16:33:19.937Z,484.57
2023-02-14T16:35:48.018Z,81.70
2023-02-14T16:38:18.694Z,242.90
2023-02-14T16:40:48.355Z,125.57
2023-02-14T16:43:17.255Z,233.37
2023-02-14T16:45:45.913Z,252.20
2023-02-14T16:48:15.809Z,480.40
2023-02-14T16:50:44.505Z,331.13
2023-02-14T16:53:22.655Z,344.77
2023-02-14T16:55:50.954Z,190.07
2023-02-14T16:58:19.546Z,246.70
2023-02-14T17:00:47.477Z,300.73
2023-02-14T17:03:15.391Z,177.53
2023-02-14T17:05:43.442Z,233.30
2023-02-14T17:08:13.529Z,98.13
2023-02-14T17:10:43.174Z,397.17
2023-02-14T17:13:11.693Z,227.20
2023-02-14T17:15:40.845Z,229.67
2023-02-14T17:18:11.615Z,275.77
2023-02-14T17:20:39.711Z,80.83
2023-02-14T17:23:07.608Z,337.47
2023-02-14T17:25:35.611Z,227.73
2023-02-14T17:28:05.266Z,192.30
2023-02-14T17:30:33.208Z,240.50
2023-02-14T17:33:01.429Z,256.33
2023-02-14T17:35:30.015Z,235.70
2023-02-14T17:37:57.962Z,73.40
2023-02-14T17:40:25.867Z,346.40
2023-02-14T17:42:53.766Z,193.10
2023-02-14T17:45:23.330Z,212.10
2023-02-14T17:47:51.234Z,154.03
2023-02-14T17:50:19.203Z,172.27
2023-02-14T17:52:47.183Z,156.33
2023-02-14T17:55:15.814Z,107.93
2023-02-14T17:57:43.773Z,95.53
2023-02-14T18:00:14.179Z,91.07
2023-02-14T18:02:43.487Z,152.07
2023-02-14T18:05:12.287Z,145.63
2023-02-14T18:07:40.187Z,124.43
2023-02-14T18:10:08.826Z,184.20
2023-02-14T18:12:36.741Z,141.63
2023-02-14T18:15:05.629Z,61.30
2023-02-14T18:17:33.583Z,128.33
2023-02-14T18:20:03.359Z,107.17
2023-02-14T18:22:32.488Z,86.67
2023-02-14T18:25:00.407Z,90.73
2023-02-14T18:27:28.289Z,115.73
2023-02-14T18:29:56.550Z,98.23
2023-02-14T18:32:24.466Z,91.47
2023-02-14T18:34:52.493Z,52.73
2023-02-14T18:37:22.162Z,85.67
2023-02-14T18:39:50.069Z,93.70
2023-02-14T18:42:17.970Z,59.67
2023-02-14T18:44:45.851Z,98.63
2023-02-14T18:47:14.009Z,67.17
2023-02-14T18:49:41.879Z,75.73
2023-02-14T18:52:10.412Z,84.03
2023-02-14T18:54:39.719Z,114.83
2023-02-14T18:57:08.243Z,92.47
2023-02-14T18:59:36.148Z,61.30
2023-02-14T19:02:04.117Z,49.53
2023-02-14T19:04:32.225Z,59.90
2023-02-14T19:07:00.154Z,47.63
2023-02-14T19:09:29.480Z,42.17
2023-02-14T19:12:00.058Z,38.30
2023-02-14T19:14:28.187Z,37.63
2023-02-14T19:16:56.092Z,40.20
2023-02-14T19:19:24.118Z,32.60
2023-02-14T19:21:52.336Z,35.40
2023-02-14T19:24:21.220Z,32.37
2023-02-14T19:26:49.407Z,32.07
2023-02-14T19:29:20.242Z,39.00
2023-02-14T19:31:49.895Z,34.13
2023-02-14T19:34:19.139Z,41.33
2023-02-14T19:36:48.140Z,37.77
2023-02-14T19:39:16.659Z,49.47
2023-02-14T19:41:44.552Z,43.87
2023-02-14T19:44:14.786Z,54.50
2023-02-14T19:46:46.085Z,48.80
2023-02-14T19:49:15.772Z,51.17
2023-02-14T19:51:44.575Z,47.30
2023-02-14T19:54:12.983Z,48.20
2023-02-14T19:56:42.785Z,58.13
2023-02-14T19:59:11.187Z,62.00
2023-02-14T20:01:41.530Z,69.20
2023-02-14T20:04:14.660Z,81.87
2023-02-14T20:06:42.924Z,40.30
2023-02-14T20:09:10.941Z,39.93
2023-02-14T20:11:41.482Z,60.83
2023-02-14T20:14:10.026Z,123.47
2023-02-14T20:16:38.285Z,82.60
2023-02-14T20:19:11.977Z,41.97
2023-02-14T20:21:42.058Z,41.90
2023-02-14T20:24:10.616Z,41.60
2023-02-14T20:26:41.615Z,42.33
2023-02-14T20:29:11.237Z,40.60
2023-02-14T20:31:43.642Z,40.57
2023-02-14T20:34:12.188Z,85.97
2023-02-14T20:36:42.637Z,55.83
2023-02-14T20:39:11.394Z,37.37
2023-02-14T20:41:39.342Z,38.20
2023-02-14T20:44:09.068Z,35.33
2023-02-14T20:46:37.248Z,41.37
2023-02-14T20:49:05.483Z,37.67
2023-02-14T20:51:35.007Z,39.37
2023-02-14T20:54:05.529Z,48.00
2023-02-14T20:56:33.508Z,80.17
2023-02-14T20:59:01.766Z,84.53
2023-02-14T21:01:30.237Z,43.70
2023-02-14T21:03:58.266Z,35.67
2023-02-14T21:06:29.987Z,34.43
2023-02-14T21:08:58.543Z,37.53
2023-02-14T21:11:28.951Z,54.20
2023-02-14T21:13:59.559Z,45.43
2023-02-14T21:16:28.739Z,36.63
2023-02-14T21:18:59.566Z,32.37
2023-02-14T21:21:32.500Z,40.10
2023-02-14T21:24:01.340Z,38.10
2023-02-14T21:26:30.985Z,39.63
2023-02-14T21:28:58.878Z,40.60
2023-02-14T21:31:26.851Z,37.60
2023-02-14T21:33:57.262Z,32.10
2023-02-14T21:36:27.795Z,32.77
2023-02-14T21:38:58.014Z,34.03
2023-02-14T21:41:27.060Z,45.70
2023-02-14T21:43:57.404Z,41.73
2023-02-14T21:46:27.463Z,52.03
2023-02-14T21:49:13.170Z,43.17
2023-02-14T21:51:41.332Z,47.03
2023-02-14T21:54:09.673Z,39.90
2023-02-14T21:56:38.921Z,40.33
2023-02-14T21:59:08.993Z,41.97
2023-02-14T22:01:38.707Z,38.53
2023-02-14T22:04:09.179Z,42.50
2023-02-14T22:06:39.076Z,34.23
2023-02-14T22:09:07.403Z,41.93
2023-02-14T22:11:35.910Z,49.43
2023-02-14T22:14:03.964Z,40.77
2023-02-14T22:16:33.449Z,37.93
2023-02-14T22:19:01.338Z,49.53
2023-02-14T22:21:31.050Z,46.17
2023-02-14T22:23:59.083Z,44.30
2023-02-14T22:26:28.525Z,45.67
2023-02-14T22:28:59.158Z,49.90
2023-02-14T22:31:28.650Z,56.30
2023-02-14T22:33:57.935Z,54.77
2023-02-14T22:36:25.853Z,46.83
2023-02-14T22:38:54.041Z,48.17
2023-02-14T22:41:23.957Z,45.60
2023-02-14T22:43:52.730Z,43.57
2023-02-14T22:46:22.175Z,47.33
2023-02-14T22:48:50.917Z,47.33
2023-02-14T22:51:23.479Z,51.60
2023-02-14T22:53:54.072Z,51.90
2023-02-14T22:56:23.411Z,52.50
2023-02-14T22:58:57.984Z,49.93
2023-02-14T23:01:26.298Z,43.77
2023-02-14T23:03:54.788Z,46.63
2023-02-14T23:06:24.465Z,48.33
2023-02-14T23:08:52.659Z,57.37
2023-02-14T23:11:22.066Z,46.97
2023-02-14T23:14:06.434Z,47.80
2023-02-14T23:16:51.607Z,53.43
2023-02-14T23:19:38.317Z,45.27
2023-02-14T23:22:08.969Z,56.63
2023-02-14T23:24:37.007Z,52.70
2023-02-14T23:27:05.321Z,53.93
2023-02-14T23:29:33.547Z,51.27
2023-02-14T23:32:01.514Z,66.83
2023-02-14T23:34:31.292Z,54.67
2023-02-14T23:36:59.683Z,49.80
2023-02-14T23:39:29.096Z,57.10
2023-02-14T23:41:57.003Z,45.17
2023-02-14T23:44:26.025Z,52.53
2023-02-14T23:46:56.157Z,52.90
2023-02-14T23:49:24.828Z,51.00
2023-02-14T23:51:54.203Z,50.27
2023-02-14T23:54:23.842Z,50.53
2023-02-14T23:56:53.880Z,43.37
2023-02-14T23:59:22.999Z,45.37
